Main page
METAR-TAF:

METAR-TAF

Airports :

Béziers Cap d'Agde Airport

Béziers, France

latitude: 43-19N, longitude: 003-21E, elevation: 17 m

Current weather observation

The report was made 21 minutes ago, at 18:00 UTC
Wind 6 kt from the South
Temperature 13°C
Humidity 82%
Pressure 1019 hPa
Visibility 10 km or more
Broken clouds at a height of 4400 ft

METAR: LFMU 281800Z AUTO 19006KT 9999 BKN044 13/10 Q1019 NOSIG

Time: 19:21 (18:21 UTC)

Forecast

The report was made 4 hours and 21 minutes ago, at 14:00 UTC
Forecast valid from 28 at 15 UTC to 29 at 15 UTC
Wind 10 kt from the South
Visibility 10 km or more
Becoming
from 28 at 21 UTC to 28 at 23 UTC
Broken clouds at a height of 1500 ft
Becoming
from 29 at 12 UTC to 29 at 14 UTC
Wind 10 kt from the Northwest

TAF: LFMU 281400Z 2815/2915 18010KT 9999 NSC BECMG 2821/2823 BKN015 BECMG 2912/2914 32010KT

Weather observations and forecasts of more than 4000 airports (METAR and TAF reports).

The available stations are represented by yellow and red dots on the map.

Hover mouse over dot to see the name of the station.

Then click to see weather observations and forecasts.

To change the map : click on the green buttons with a black cross to zoom in, on the green button with a dash to zoom out, or on the green arrows for adjacent maps.


METAR-TAF: